Home > Products > Valid Products > MTR

000
SAUS46 KSTO 162153
MTRBLU
METAR KBLU 162152Z AUTO 25009KT 10SM CLR 18/03 A3000 RMK AO2 SLP094
T01780028 TSNO





000
SAUS46 KSTO 162053
MTRBLU
METAR KBLU 162052Z AUTO 29008KT 10SM CLR 18/02 A3001 RMK AO2 SLP097
T01780017 58006 TSNO





000
SAUS46 KSTO 161953
MTRBLU
METAR KBLU 161952Z AUTO 29006KT 10SM CLR 17/01 A3001 RMK AO2 SLP099
T01670006 TSNO





000
SAUS46 KSTO 161853
MTRBLU
METAR KBLU 161852Z AUTO 26008KT 10SM CLR 16/M01 A3002 RMK AO2 SLP105
T01611006 TSNO





000
SAUS46 KSTO 161753
MTRBLU
METAR KBLU 161752Z AUTO 27005KT 10SM CLR A3002 RMK AO2 SLPNO 52003
TSNO





000
SAUS46 KSTO 161653
MTRBLU
METAR KBLU 161652Z AUTO VRB04KT CLR A3002 RMK AO2 SLPNO TSNO $





000
SAUS46 KSTO 161637
MTRBLU
SPECI KBLU 161636Z AUTO 31004KT FEW002 14/M02 A3002 RMK AO2
T01391017 PWINO TSNO $





000
SAUS46 KSTO 161553
MTRBLU
METAR KBLU 161552Z AUTO 00000KT 10SM CLR 14/M03 A3001 RMK AO2 SLP106
T01391028 TSNO





000
SAUS46 KSTO 161454
MTRBLU
METAR KBLU 161452Z AUTO 00000KT 10SM CLR 13/M02 A3001 RMK AO2 SLP108
T01281017 53003 TSNO





000
SAUS46 KSTO 161353
MTRBLU
METAR KBLU 161352Z AUTO 04003KT 10SM CLR 11/M03 A3001 RMK AO2 SLP108
T01061028 TSNO





000
SAUS46 KSTO 161253
MTRBLU
METAR KBLU 161252Z AUTO 02003KT 10SM CLR 10/M01 A3000 RMK AO2 SLP104
T01001011 TSNO





000
SAUS46 KSTO 161153
MTRBLU
METAR KBLU 161152Z AUTO 05003KT 10SM CLR 10/M04 A3000 RMK AO2 SLP103
T01001039 10122 20100 58006 TSNO





000
SAUS46 KSTO 161053
MTRBLU
METAR KBLU 161052Z AUTO 03003KT 10SM CLR 11/M02 A3001 RMK AO2 SLP106
T01061022 TSNO





000
SAUS46 KSTO 160953
MTRBLU
METAR KBLU 160952Z AUTO 36003KT 10SM CLR 11/M02 A3003 RMK AO2 SLP107
T01111022 TSNO





000
SAUS46 KSTO 160854
MTRBLU
METAR KBLU 160852Z AUTO 06003KT 10SM CLR 11/M03 A3003 RMK AO2 SLP107
T01111033 58006 TSNO





000
SAUS46 KSTO 160753
MTRBLU
METAR KBLU 160752Z AUTO 00000KT 10SM CLR 12/M03 A3004 RMK AO2 SLP110
T01171028 401670094 TSNO





000
SAUS46 KSTO 160653
MTRBLU
METAR KBLU 160652Z AUTO 00000KT 10SM CLR 11/M03 A3004 RMK AO2 SLP114
T01111028 TSNO





000
SAUS46 KSTO 160553
MTRBLU
METAR KBLU 160552Z AUTO 02004KT 10SM CLR 12/M02 A3005 RMK AO2 SLP117
T01171017 10161 20111 50001 TSNO





000
SAUS46 KSTO 160453
MTRBLU
METAR KBLU 160452Z AUTO 35005KT 10SM CLR 12/M01 A3006 RMK AO2 SLP122
T01171011 TSNO





000
SAUS46 KSTO 160353
MTRBLU
METAR KBLU 160352Z AUTO 00000KT 10SM CLR 12/M05 A3005 RMK AO2 SLP121
T01221050 TSNO





000
SAUS46 KSTO 160253
MTRBLU
METAR KBLU 160252Z AUTO 00000KT 10SM CLR 12/M04 A3004 RMK AO2 SLP124
T01221039 56007 TSNO





000
SAUS46 KSTO 160153
MTRBLU
METAR KBLU 160152Z AUTO 27005KT 10SM CLR 14/M03 A3005 RMK AO2 SLP125
T01391028 TSNO





000
SAUS46 KSTO 160053
MTRBLU
METAR KBLU 160052Z AUTO 26005KT 10SM CLR 16/M02 A3005 RMK AO2 SLP122
T01561022 TSNO





000
SAUS46 KSTO 152353
MTRBLU
METAR KBLU 152352Z AUTO 24008KT 10SM CLR 16/00 A3007 RMK AO2 SLP124
T01610000 10167 20144 58011 TSNO





000
SAUS46 KSTO 152253
MTRBLU
METAR KBLU 152252Z AUTO 21006G14KT 10SM CLR 16/00 A3008 RMK AO2
SLP129 T01560000 TSNO





000
SAUS46 KSTO 152153
MTRBLU
METAR KBLU 152152Z AUTO 22007G15KT 190V250 10SM CLR 16/00 A3010 RMK
AO2 SLP132 T01610000 TSNO





000
SAUS46 KSTO 152053
MTRBLU
METAR KBLU 152052Z AUTO 23007KT 190V260 10SM CLR 16/02 A3010 RMK AO2
SLP134 T01610017 58008 TSNO





000
SAUS46 KSTO 151953
MTRBLU
METAR KBLU 151952Z AUTO 29008KT 260V350 10SM CLR 17/M06 A3012 RMK
AO2 SLP137 T01671056 TSNO





000
SAUS46 KSTO 151853
MTRBLU
METAR KBLU 151852Z AUTO VRB05KT 10SM CLR 15/M06 A3013 RMK AO2 SLP145
T01501061 TSNO





000
SAUS46 KSTO 151753
MTRBLU
METAR KBLU 151752Z AUTO VRB06KT 10SM CLR 15/M07 A3013 RMK AO2 SLP144
T01501072 10150 20094 55002 TSNO





000
SAUS46 KSTO 151653
MTRBLU
METAR KBLU 151652Z AUTO 16008KT 10SM CLR 14/M04 A3012 RMK AO2 SLP143
T01441039 TSNO





000
SAUS46 KSTO 151553
MTRBLU
METAR KBLU 151552Z AUTO VRB04KT 10SM CLR 13/M02 A3012 RMK AO2 SLP150
T01281017 TSNO





000
SAUS46 KSTO 151453
MTRBLU
METAR KBLU 151452Z AUTO 10003KT 10SM CLR 11/02 A3014 RMK AO2 SLP158
T01110022 55000 TSNO





000
SAUS46 KSTO 151353
MTRBLU
METAR KBLU 151352Z AUTO 12004KT 10SM CLR 09/03 A3014 RMK AO2 SLP154
T00940028 TSNO





000
SAUS46 KSTO 151253
MTRBLU
METAR KBLU 151252Z AUTO 12003KT 10SM CLR 10/03 A3013 RMK AO2 SLP148
T01000033 TSNO





000
SAUS46 KSTO 151153
MTRBLU
METAR KBLU 151152Z AUTO 00000KT 10SM CLR 11/04 A3014 RMK AO2 SLP150
T01060039 10122 20100 56010 TSNO





000
SAUS46 KSTO 151053
MTRBLU
METAR KBLU 151052Z AUTO 16004KT 10SM CLR 11/04 A3015 RMK AO2 SLP150
T01110039 TSNO





000
SAUS46 KSTO 150953
MTRBLU
METAR KBLU 150952Z AUTO 12003KT 10SM CLR 11/04 A3015 RMK AO2 SLP149
T01110039 TSNO





000
SAUS46 KSTO 150854
MTRBLU
METAR KBLU 150852Z AUTO 11003KT 10SM CLR 11/03 A3017 RMK AO2 SLP156
T01110033 58009 TSNO





000
SAUS46 KSTO 150753
MTRBLU
METAR KBLU 150752Z AUTO 12003KT 10SM CLR 12/02 A3019 RMK AO2 SLP164
T01170022 401780094 TSNO





000
SAUS46 KSTO 150653
MTRBLU
METAR KBLU 150652Z AUTO 11003KT 10SM CLR 12/00 A3019 RMK AO2 SLP165
T01170000 TSNO





000
SAUS46 KSTO 150553
MTRBLU
METAR KBLU 150552Z AUTO 12003KT 10SM CLR 12/00 A3021 RMK AO2 SLP174
T01220000 10161 20106 50002 TSNO





000
SAUS46 KSTO 150454
MTRBLU
METAR KBLU 150452Z AUTO 09003KT 10SM CLR 12/02 A3021 RMK AO2 SLP176
T01220022 TSNO





000
SAUS46 KSTO 150354
MTRBLU
METAR KBLU 150352Z AUTO 09003KT 10SM CLR 12/04 A3021 RMK AO2 SLP177
T01170044 TSNO





000
SAUS46 KSTO 150254
MTRBLU
METAR KBLU 150252Z AUTO 00000KT 10SM CLR 12/04 A3020 RMK AO2 SLP177
T01220044 56003 TSNO





000
SAUS46 KSTO 150154
MTRBLU
METAR KBLU 150152Z AUTO 00000KT 10SM CLR 14/03 A3020 RMK AO2 SLP177
T01440028 TSNO





000
SAUS46 KSTO 150054
MTRBLU
METAR KBLU 150052Z AUTO 20006KT 10SM CLR 15/M02 A3021 RMK AO2 SLP179
T01501017 TSNO





000
SAUS46 KSTO 142353
MTRBLU
METAR KBLU 142352Z AUTO 23007KT 10SM CLR 16/01 A3021 RMK AO2 SLP177
T01560006 10178 20144 56004 TSNO





000
SAUS46 KSTO 142253
MTRBLU
METAR KBLU 142252Z AUTO 22010KT 10SM CLR 17/M01 A3021 RMK AO2 SLP176
T01671006 TSNO





000
SAUS46 KSTO 142153
MTRBLU
METAR KBLU 142152Z AUTO 27009KT 10SM CLR 17/M04 A3022 RMK AO2 SLP173
T01721039 TSNO





000
SAUS46 KSTO 142053
MTRBLU
METAR KBLU 142052Z AUTO 27009G15KT 230V300 10SM CLR 17/M06 A3023 RMK
AO2 SLP176 T01721056 50002 TSNO





000
SAUS46 KSTO 141954
MTRBLU
METAR KBLU 141952Z AUTO VRB06KT 10SM CLR 16/M08 A3023 RMK AO2 SLP182
T01611083 TSNO





000
SAUS46 KSTO 141854
MTRBLU
METAR KBLU 141852Z AUTO 26006KT 10SM CLR 16/M09 A3023 RMK AO2 SLP182
T01561094 TSNO





000
SAUS46 KSTO 141754
MTRBLU
METAR KBLU 141752Z AUTO 29006KT 10SM CLR 14/M11 A3022 RMK AO2 SLP179
T01441111 10150 20094 53012 TSNO





000
SAUS46 KSTO 141654
MTRBLU
METAR KBLU 141652Z AUTO VRB03KT 10SM CLR 14/M14 A3020 RMK AO2 SLP173
T01441144 TSNO





000
SAUS46 KSTO 141554
MTRBLU
METAR KBLU 141552Z AUTO VRB04KT 10SM CLR 13/M14 A3019 RMK AO2 SLP171
T01331139 TSNO





000
SAUS46 KSTO 141453
MTRBLU
METAR KBLU 141452Z AUTO 06003KT 10SM CLR 12/M14 A3018 RMK AO2 SLP168
T01171139 53009 TSNO





000
SAUS46 KSTO 141353
MTRBLU
METAR KBLU 141352Z AUTO 05005KT 10SM CLR 10/M17 A3016 RMK AO2 SLP161
T01001167 TSNO





000
SAUS46 KSTO 141253
MTRBLU
METAR KBLU 141252Z AUTO 05007KT 10SM CLR 09/M16 A3015 RMK AO2 SLP153
T00941156 TSNO





000
SAUS46 KSTO 141153
MTRBLU
METAR KBLU 141152Z AUTO 05008KT 10SM CLR 10/M16 A3015 RMK AO2 SLP149
T01001161 10106 20094 56002 TSNO





000
SAUS46 KSTO 141053
MTRBLU
METAR KBLU 141052Z AUTO 05007G16KT 020V090 10SM CLR 09/M16 A3015 RMK
AO2 SLP150 T00941156 TSNO





000
SAUS46 KSTO 140953
MTRBLU
METAR KBLU 140952Z AUTO 05007KT 10SM CLR 10/M16 A3015 RMK AO2 SLP149
T01001156 TSNO





000
SAUS46 KSTO 140854
MTRBLU
METAR KBLU 140852Z AUTO 06007G15KT 040V110 10SM CLR 10/M16 A3015 RMK
AO2 SLP155 T01001161 53001 TSNO





000
SAUS46 KSTO 140754
MTRBLU
METAR KBLU 140752Z AUTO 06013G22KT 10SM CLR 10/M16 A3015 RMK AO2 PK
WND 05026/0716 SLP154 T01001156 401830078 TSNO





000
SAUS46 KSTO 140654
MTRBLU
METAR KBLU 140652Z AUTO 06013G26KT 10SM CLR 11/M16 A3015 RMK AO2 PK
WND 05026/0648 SLP153 T01061161 TSNO





000
SAUS46 KSTO 140554
MTRBLU
METAR KBLU 140552Z AUTO 06012G23KT 030V090 10SM CLR 11/M18 A3015 RMK
AO2 SLP159 T01061178 10183 20106 51006 TSNO





000
SAUS46 KSTO 140454
MTRBLU
METAR KBLU 140452Z AUTO 07011G22KT 030V090 10SM CLR 11/M18 A3015 RMK
AO2 PK WND 08027/0429 SLP162 T01111178 TSNO





000
SAUS46 KSTO 140354
MTRBLU
METAR KBLU 140352Z AUTO 07010G20KT 020V090 10SM CLR 11/M20 A3014 RMK
AO2 SLP160 T01111200 TSNO





000
SAUS46 KSTO 140254
MTRBLU
METAR KBLU 140252Z AUTO 07007G15KT 030V100 10SM CLR 12/M18 A3013 RMK
AO2 SLP157 T01221178 53001 TSNO





000
SAUS46 KSTO 140154
MTRBLU
METAR KBLU 140152Z AUTO 10SM CLR 16/M16 A3013 RMK AO2 SLP150
T01561161 TSNO





000
SAUS46 KSTO 140054
MTRBLU
METAR KBLU 140052Z AUTO VRB04KT 10SM CLR 17/M16 A3012 RMK AO2 SLP142
T01721156 TSNO





000
SAUS46 KSTO 132355 COR
MTRBLU
METAR KBLU 132352Z AUTO 07005KT 10SM CLR 18/M18 A3013 RMK AO2 SLP141
T01781178 10183 20139 57001 TSNO





000
SAUS46 KSTO 132354 COR
MTRBLU
METAR NU 132352ZAQ=ZE)SCLR 18/M18 A3013 RMK AO2 SLP141
T01781178 1018?&LLN57001 TSNO





000
SAUS46 KSTO 132353
MTRBLU
METAR KBLU 132352Z AUTO 07005KT 10SM CLR 18/M18 A3013 RMK AO2 SLP141
T01781178 10183 20139 57001 TSNO





000
SAUS46 KSTO 132253
MTRBLU
METAR KBLU 132252Z AUTO 10SM CLR 18/M16 A3013 RMK AO2 SLP139
T01781161 TSNO





    US Dept of Commerce
    National Oceanic and Atmospheric Administration
    National Weather Service
    1325 East West Highway
    Silver Spring, MD 20910
    Page Author: NWS Internet Services Team
Disclaimer
Information Quality
Credits
Glossary
Privacy Policy
Freedom of Information Act (FOIA)
About Us
Career Opportunities